PST,Max TemperatureF,Mean TemperatureF,Min TemperatureF,Max Dew PointF,MeanDew PointF,Min DewpointF,Max Humidity, Mean Humidity, Min Humidity, Max Sea Level PressureIn, Mean Sea Level PressureIn, Min Sea Level PressureIn, Max VisibilityMiles, Mean VisibilityMiles, Min VisibilityMiles, Max Wind SpeedMPH, Mean Wind SpeedMPH, Max Gust SpeedMPH,PrecipitationIn, CloudCover, Events, WindDirDegrees
2012-11-1,55,52,50,50,48,46,88,85,77,30.04,29.88,29.73,10,10,4,13,3,,0.48,7,,181
2012-11-2,57,52,48,50,47,45,93,84,72,30.06,30.03,30.00,10,8,0,9,4,,0.16,7,,197
2012-11-3,55,52,50,52,49,46,94,87,82,30.21,30.08,29.99,10,8,3,20,7,28,0.22,8,,187
2012-11-4,59,55,51,55,52,48,94,88,82,30.28,30.24,30.19,10,6,0,18,5,23,0.62,8,,195
2012-11-5,55,48,41,52,44,36,88,80,66,30.42,30.35,30.19,10,8,2,13,4,16,0.01,4,,30
2012-11-6,55,46,37,48,41,34,93,85,72,30.19,30.04,29.97,10,8,0,22,5,30,0.01,3,,191
2012-11-7,51,42,33,39,35,28,93,78,54,30.16,30.09,29.97,10,9,1,13,6,,0.00,1,,192
2012-11-8,48,39,30,36,31,27,93,74,53,29.97,29.87,29.83,10,8,0,16,5,23,0.00,2,,35
2012-11-9,46,36,26,34,27,19,86,75,57,29.98,29.91,29.86,10,10,10,6,1,,0.00,1,,207
2012-11-10,44,34,23,28,23,18,86,72,37,30.24,30.13,29.98,10,10,10,7,1,,0.00,1,,100
2012-11-11,42,34,26,39,33,21,87,83,70,30.26,30.19,30.10,10,8,2,6,1,,1.14,7,,219
2012-11-12,51,48,44,46,44,39,93,87,76,30.23,30.16,30.09,10,8,1,14,8,16,0.19,8,,187
2012-11-13,50,48,46,45,45,43,93,88,82,30.24,30.19,30.15,10,9,1,12,7,17,0.39,8,,186
2012-11-14,48,42,37,45,39,32,93,86,76,30.34,30.30,30.20,10,8,0,9,3,,0.00,6,,33
2012-11-15,48,40,33,39,36,28,93,83,71,30.29,30.10,29.96,10,8,0,15,5,18,0.00,3,,35
2012-11-16,46,42,37,41,38,34,93,85,76,29.97,29.87,29.72,10,5,0,7,2,,0.59,8,,198
2012-11-17,48,44,41,45,40,36,93,85,81,29.71,29.61,29.51,10,8,4,18,4,29,0.46,8,,180
2012-11-18,46,44,41,43,39,36,87,83,81,29.77,29.68,29.54,10,10,5,15,10,25,1.91,8,,171
2012-11-19,51,48,46,48,44,43,93,86,82,29.70,29.52,29.37,10,9,3,25,9,32,3.61,6,,173
2012-11-20,48,44,39,45,40,36,93,85,76,29.71,29.64,29.55,10,8,0,18,6,34,0.37,6,Thunderstorm,176
2012-11-21,44,38,32,39,36,28,87,84,81,30.31,29.77,29.54,10,9,2,20,8,26,0.92,7,,190
2012-11-22,46,40,33,37,34,28,93,82,66,30.40,30.32,30.23,10,9,0,6,1,,0.01,6,,200
2012-11-23,46,44,41,45,41,37,93,87,81,30.24,30.12,30.05,10,8,1,18,7,26,1.30,8,,202
2012-11-24,46,40,35,43,38,32,93,86,76,30.29,30.25,30.15,10,7,0,7,2,,0.00,6,,121
2012-11-25,44,37,30,37,33,28,93,81,70,30.37,30.31,30.23,10,9,0,14,4,18,0.00,3,,24
2012-11-26,46,38,30,34,30,25,86,73,57,30.24,30.13,30.07,10,10,10,13,8,17,0.00,0,,25
2012-11-27,46,38,30,36,31,25,93,82,66,30.11,30.03,29.91,10,10,5,6,0,,0.00,3,,36
2012-11-28,44,38,33,39,35,28,93,82,70,29.92,29.74,29.62,10,9,3,9,2,,0.24,4,,12
2012-11-29,48,44,39,45,41,36,93,85,81,29.73,29.59,29.47,10,9,1,13,2,16,0.17,7,,190
2012-11-30,50,47,44,46,44,39,93,87,81,29.48,29.44,29.38,10,9,3,16,4,23,2.65,7,,182